createdAt,value
2023-01-13T02:45:59.051Z,633.00
2023-01-13T02:46:58.979Z,632.00
2023-01-13T02:47:58.965Z,631.00
2023-01-13T07:19:53.348Z,1240.00
2023-01-13T07:20:53.616Z,1234.00
2023-01-13T07:21:51.239Z,1243.00
2023-01-13T07:22:51.140Z,1241.00
2023-01-13T07:23:51.152Z,1243.00
2023-01-13T07:24:51.093Z,1273.00
2023-01-13T07:25:51.054Z,1283.00
2023-01-13T07:26:51.011Z,1295.00
2023-01-13T07:27:51.002Z,1298.00
2023-01-13T07:28:51.006Z,1301.00
2023-01-13T07:29:50.916Z,1308.00
2023-01-13T07:30:50.881Z,1321.00
2023-01-13T07:31:50.934Z,1325.00
2023-01-13T07:32:50.801Z,1352.00
2023-01-13T07:33:50.782Z,1363.00
2023-01-13T07:34:50.748Z,1361.00
2023-01-13T07:35:50.711Z,1362.00
2023-01-13T07:36:50.658Z,1372.00
2023-01-13T07:37:50.657Z,1367.00
2023-01-13T07:38:50.649Z,1394.00
2023-01-13T07:39:50.658Z,1394.00
2023-01-13T07:40:50.591Z,1484.00
2023-01-13T07:41:50.498Z,1488.00
2023-01-13T07:42:50.459Z,1480.00
2023-01-13T07:43:52.017Z,1475.00
2023-01-13T07:44:50.583Z,1486.00
2023-01-13T07:45:50.400Z,1499.00
2023-01-13T07:46:50.399Z,1502.00
2023-01-13T07:47:50.313Z,1288.00
2023-01-13T07:48:50.272Z,1085.00
2023-01-13T07:49:50.351Z,1123.00
2023-01-13T08:03:50.073Z,982.00
2023-01-13T08:04:50.096Z,977.00
2023-01-13T08:05:50.034Z,975.00
2023-01-13T08:06:50.004Z,976.00
2023-01-13T08:07:50.036Z,984.00
2023-01-13T08:08:49.958Z,983.00
2023-01-13T08:09:49.958Z,980.00
2023-01-13T08:10:49.906Z,982.00
2023-01-13T08:11:49.899Z,977.00
2023-01-13T08:12:53.085Z,991.00
2023-01-13T08:13:50.874Z,1014.00
2023-01-13T08:14:49.820Z,1016.00
2023-01-13T08:15:49.806Z,1029.00
2023-01-13T08:16:49.764Z,1036.00
2023-01-13T08:17:49.698Z,1050.00
2023-01-13T08:18:49.681Z,1063.00
2023-01-13T08:19:49.885Z,1089.00
2023-01-13T08:20:49.674Z,1113.00
2023-01-13T08:21:49.576Z,1174.00
2023-01-13T08:22:49.568Z,1184.00
2023-01-13T08:23:49.542Z,1226.00
2023-01-13T08:24:49.517Z,1226.00
2023-01-13T08:25:49.460Z,1249.00
2023-01-13T08:26:49.429Z,1247.00
2023-01-13T08:27:49.646Z,1267.00
2023-01-13T08:28:51.740Z,1348.00
2023-01-13T08:29:51.773Z,1360.00
2023-01-13T08:32:49.881Z,1379.00
2023-01-13T08:33:49.679Z,1381.00
2023-01-13T08:34:49.709Z,1382.00
2023-01-13T08:35:49.489Z,1409.00
2023-01-13T08:36:49.284Z,1425.00
2023-01-13T08:37:49.252Z,1600.00
2023-01-13T08:38:49.497Z,1569.00
2023-01-13T08:39:49.354Z,1475.00
2023-01-13T08:40:49.234Z,1519.00
2023-01-13T08:41:49.232Z,1569.00
2023-01-13T08:42:49.228Z,1586.00
2023-01-13T08:43:49.188Z,1622.00
2023-01-13T08:44:49.144Z,1623.00
2023-01-13T08:45:49.185Z,1619.00
2023-01-13T08:46:49.084Z,1604.00
2023-01-13T08:47:49.050Z,1607.00
2023-01-13T08:48:48.998Z,1556.00
2023-01-13T08:49:48.967Z,1556.00
2023-01-13T08:50:48.953Z,1561.00
2023-01-13T11:16:55.830Z,695.00
2023-01-13T11:18:53.724Z,691.00
2023-01-13T11:19:54.052Z,685.00
2023-01-13T11:25:58.486Z,672.00
2023-01-13T11:26:51.500Z,667.00
2023-01-13T11:27:55.112Z,664.00
2023-01-13T11:30:02.799Z,695.00
2023-01-13T11:30:51.666Z,702.00
2023-01-13T11:38:54.079Z,780.00
2023-01-13T11:42:54.771Z,873.00
2023-01-13T11:47:55.932Z,949.00
2023-01-13T11:49:55.573Z,964.00
2023-01-13T11:51:55.554Z,987.00
2023-01-13T11:56:56.171Z,985.00
2023-01-13T12:03:13.201Z,1021.00
2023-01-13T12:04:17.499Z,1033.00
2023-01-13T12:06:14.128Z,1074.00
2023-01-13T12:07:16.805Z,1082.00
2023-01-13T12:09:22.089Z,1101.00
2023-01-13T12:10:22.440Z,1100.00
2023-01-13T12:11:21.583Z,1095.00
2023-01-13T12:12:21.614Z,1100.00
2023-01-13T12:13:22.646Z,1117.00
2023-01-13T12:14:21.459Z,1126.00
2023-01-13T12:15:21.486Z,1118.00
2023-01-13T12:16:21.650Z,1112.00
2023-01-13T12:17:21.418Z,1106.00
2023-01-13T12:18:21.379Z,1115.00
2023-01-13T12:19:21.390Z,1108.00
2023-01-13T12:20:21.205Z,1087.00
2023-01-13T12:21:21.156Z,1072.00
2023-01-13T12:22:21.536Z,1058.00
2023-01-13T12:23:21.097Z,1046.00
2023-01-13T12:24:21.058Z,1054.00
2023-01-13T12:25:21.071Z,1052.00
2023-01-13T12:26:20.985Z,1052.00
2023-01-13T12:27:20.921Z,1141.00
2023-01-13T12:28:20.930Z,1109.00
2023-01-13T12:29:20.838Z,1044.00
2023-01-13T12:30:20.799Z,1050.00
2023-01-13T12:31:20.820Z,1053.00
2023-01-13T12:32:20.697Z,1047.00
2023-01-13T12:33:20.652Z,1039.00
2023-01-13T12:34:20.600Z,1006.00
2023-01-13T12:35:20.562Z,1010.00
2023-01-13T12:36:20.467Z,1007.00
2023-01-13T12:37:20.445Z,1002.00
2023-01-13T12:38:20.419Z,1008.00
2023-01-13T12:39:20.273Z,993.00
2023-01-13T12:40:20.236Z,984.00
2023-01-13T12:41:20.164Z,988.00
2023-01-13T12:42:20.089Z,986.00
2023-01-13T12:43:20.039Z,982.00
2023-01-13T12:44:19.939Z,978.00
2023-01-13T12:45:19.897Z,972.00
2023-01-13T12:46:19.849Z,970.00
2023-01-13T12:47:19.762Z,969.00
2023-01-13T12:48:19.710Z,966.00
2023-01-13T12:49:19.703Z,963.00
2023-01-13T12:50:19.626Z,965.00
2023-01-13T12:51:19.530Z,959.00
2023-01-13T12:52:19.488Z,915.00
2023-01-13T12:53:19.405Z,940.00
2023-01-13T12:54:19.340Z,948.00
2023-01-13T12:55:19.305Z,947.00
2023-01-13T12:56:19.253Z,944.00
2023-01-13T12:57:19.168Z,934.00
2023-01-13T12:58:19.181Z,932.00
2023-01-13T12:59:19.127Z,933.00
2023-01-13T13:00:19.067Z,937.00
2023-01-13T13:01:19.070Z,937.00
2023-01-13T14:28:15.096Z,812.00
2023-01-13T14:29:15.105Z,809.00
2023-01-13T14:30:15.052Z,807.00
2023-01-13T14:31:14.997Z,806.00
2023-01-13T14:32:14.935Z,801.00
2023-01-13T14:33:14.882Z,798.00
2023-01-13T14:34:31.207Z,798.00
2023-01-13T14:35:15.793Z,796.00
2023-01-13T14:36:14.776Z,792.00
2023-01-13T14:37:14.777Z,791.00
2023-01-13T14:38:14.708Z,790.00
2023-01-13T14:39:14.661Z,788.00
2023-01-13T14:40:14.620Z,785.00
2023-01-13T14:41:14.567Z,781.00
2023-01-13T14:42:14.531Z,778.00
2023-01-13T14:43:14.524Z,776.00
2023-01-13T14:44:14.468Z,773.00
2023-01-13T14:45:14.440Z,771.00
2023-01-13T14:46:14.435Z,767.00
2023-01-13T14:47:14.345Z,764.00
2023-01-13T14:48:14.321Z,763.00
2023-01-13T14:49:14.329Z,762.00
2023-01-13T14:50:14.267Z,764.00
2023-01-13T14:51:14.223Z,765.00
2023-01-13T14:52:14.180Z,767.00
2023-01-13T14:53:14.154Z,765.00
2023-01-13T14:54:14.123Z,763.00
2023-01-13T14:55:14.093Z,763.00
2023-01-13T14:56:14.051Z,761.00
2023-01-13T14:57:14.012Z,758.00
2023-01-13T14:58:13.979Z,757.00
2023-01-13T14:59:13.938Z,757.00
2023-01-13T15:00:13.916Z,758.00
2023-01-13T15:01:13.958Z,754.00
2023-01-13T15:02:13.837Z,756.00
2023-01-13T15:03:13.798Z,757.00
2023-01-13T15:04:13.752Z,755.00
2023-01-13T15:05:13.744Z,753.00
2023-01-13T15:06:13.679Z,750.00
2023-01-13T15:07:13.666Z,748.00
2023-01-13T15:08:13.631Z,749.00
2023-01-13T15:09:13.570Z,748.00
2023-01-13T15:10:13.542Z,746.00
2023-01-13T15:11:13.567Z,746.00
2023-01-13T15:12:13.468Z,744.00
2023-01-13T15:13:13.436Z,744.00
2023-01-13T15:14:13.398Z,744.00
2023-01-13T15:15:13.362Z,745.00
2023-01-13T15:16:13.388Z,744.00
2023-01-13T15:17:13.310Z,745.00
2023-01-13T15:18:13.277Z,745.00
2023-01-13T15:19:13.234Z,743.00
2023-01-13T15:20:13.222Z,741.00
2023-01-13T15:21:13.162Z,741.00
2023-01-13T15:22:13.132Z,742.00
2023-01-13T15:23:13.129Z,739.00
2023-01-13T15:24:13.073Z,738.00
2023-01-13T15:25:13.037Z,736.00
2023-01-13T15:26:12.999Z,736.00
2023-01-13T15:27:12.958Z,733.00
2023-01-13T15:28:12.929Z,730.00
2023-01-13T15:29:12.883Z,729.00
2023-01-13T15:30:12.836Z,731.00
2023-01-13T15:31:12.827Z,731.00
2023-01-13T15:32:12.755Z,728.00
2023-01-13T15:33:12.713Z,727.00
2023-01-13T15:34:12.683Z,728.00
2023-01-13T15:35:14.155Z,728.00
2023-01-13T15:36:12.600Z,727.00
2023-01-13T15:37:12.563Z,728.00
2023-01-13T15:38:12.524Z,729.00
2023-01-13T15:39:12.501Z,729.00
2023-01-13T15:40:12.474Z,728.00
2023-01-13T15:41:13.877Z,727.00
2023-01-13T15:42:12.400Z,728.00
2023-01-13T15:43:12.400Z,727.00
2023-01-13T15:44:12.346Z,728.00
2023-01-13T15:45:12.305Z,727.00
2023-01-13T15:46:12.324Z,726.00
2023-01-13T15:47:13.892Z,725.00
2023-01-13T15:48:12.204Z,724.00
2023-01-13T15:49:12.171Z,722.00
2023-01-13T15:50:12.130Z,722.00
2023-01-13T15:51:12.091Z,721.00
2023-01-13T15:52:12.045Z,720.00
2023-01-13T15:53:14.256Z,722.00
2023-01-13T15:54:11.965Z,717.00
2023-01-13T15:55:11.932Z,715.00
2023-01-13T15:56:11.879Z,715.00
2023-01-13T15:57:11.850Z,715.00
2023-01-13T15:58:11.818Z,715.00
2023-01-13T15:59:11.791Z,716.00
2023-01-13T16:00:11.730Z,716.00
2023-01-13T16:01:11.771Z,716.00
2023-01-13T16:02:11.656Z,714.00
2023-01-13T16:03:11.701Z,714.00
2023-01-13T16:04:11.679Z,715.00
2023-01-13T16:05:11.698Z,717.00
2023-01-13T16:06:11.735Z,716.00
2023-01-13T16:07:11.717Z,714.00
2023-01-13T16:08:11.758Z,713.00
2023-01-13T16:09:11.801Z,713.00
2023-01-13T16:10:11.805Z,711.00
2023-01-13T16:11:11.807Z,712.00
2023-01-13T16:12:11.819Z,714.00
2023-01-13T16:13:11.858Z,714.00
2023-01-13T16:14:11.887Z,713.00
2023-01-13T16:15:11.891Z,711.00
2023-01-13T16:16:11.921Z,712.00
2023-01-13T16:17:11.948Z,711.00
2023-01-13T16:18:11.968Z,712.00
2023-01-13T16:19:12.046Z,714.00
2023-01-13T16:20:12.030Z,710.00
2023-01-13T16:21:12.045Z,709.00
2023-01-13T16:22:14.151Z,708.00
2023-01-13T16:23:12.052Z,709.00
2023-01-13T16:24:12.007Z,708.00
2023-01-13T16:25:11.988Z,707.00
2023-01-13T16:26:11.995Z,707.00
2023-01-13T16:27:12.026Z,709.00
2023-01-13T16:28:12.048Z,709.00
2023-01-13T16:29:12.091Z,709.00
2023-01-13T16:30:12.106Z,710.00
2023-01-13T16:31:12.160Z,711.00
2023-01-13T16:32:12.170Z,708.00
2023-01-13T16:33:12.186Z,709.00
2023-01-13T16:34:12.217Z,708.00
2023-01-13T16:35:12.243Z,705.00
2023-01-13T16:36:12.956Z,704.00
2023-01-13T16:37:12.235Z,704.00
2023-01-13T16:38:12.200Z,704.00
2023-01-13T16:39:12.188Z,700.00
2023-01-13T16:40:12.149Z,699.00
2023-01-13T16:41:12.105Z,698.00
2023-01-13T16:42:12.069Z,696.00
2023-01-13T16:43:12.032Z,697.00
2023-01-13T16:44:12.028Z,695.00
2023-01-13T16:45:12.056Z,696.00
2023-01-13T16:46:12.086Z,693.00
2023-01-13T16:47:12.125Z,692.00
2023-01-13T16:48:12.149Z,693.00
2023-01-13T16:49:12.189Z,693.00
2023-01-13T16:50:12.223Z,692.00
2023-01-13T16:51:12.261Z,692.00
2023-01-13T16:52:12.292Z,691.00
2023-01-13T16:53:12.307Z,691.00
2023-01-13T16:54:12.344Z,693.00
2023-01-13T16:55:12.359Z,694.00
2023-01-13T16:56:12.428Z,697.00
2023-01-13T16:57:12.406Z,699.00
2023-01-13T16:58:12.443Z,697.00
2023-01-13T16:59:12.491Z,693.00
2023-01-13T17:00:12.528Z,693.00
2023-01-13T17:01:12.624Z,690.00
2023-01-13T17:02:12.562Z,685.00
2023-01-13T17:03:12.633Z,688.00
2023-01-13T17:04:12.621Z,686.00
2023-01-13T17:05:12.690Z,687.00
2023-01-13T17:06:12.679Z,689.00
2023-01-13T17:07:12.708Z,687.00
2023-01-13T17:08:12.753Z,687.00
2023-01-13T17:09:12.763Z,688.00
2023-01-13T17:10:12.773Z,688.00
2023-01-13T17:11:12.831Z,684.00
2023-01-13T17:12:12.813Z,683.00
2023-01-13T17:13:16.433Z,681.00
2023-01-13T17:14:18.581Z,681.00
2023-01-13T17:16:12.788Z,679.00
2023-01-13T17:17:12.743Z,677.00
2023-01-13T17:18:12.704Z,675.00
2023-01-13T17:19:12.657Z,673.00
2023-01-13T17:20:12.629Z,674.00
2023-01-13T17:21:12.589Z,677.00
2023-01-13T17:22:12.568Z,677.00
2023-01-13T17:23:12.577Z,676.00
2023-01-13T17:24:12.515Z,675.00
2023-01-13T17:25:12.490Z,675.00
2023-01-13T17:26:12.422Z,678.00
2023-01-13T17:27:12.401Z,678.00
2023-01-13T17:28:12.390Z,677.00
2023-01-13T17:29:12.330Z,679.00
2023-01-13T17:30:12.289Z,680.00
2023-01-13T17:31:12.281Z,681.00
2023-01-13T17:32:12.230Z,682.00
2023-01-13T17:33:12.196Z,682.00
2023-01-13T17:34:12.185Z,679.00
2023-01-13T17:35:12.132Z,679.00
2023-01-13T17:36:12.077Z,676.00
2023-01-13T17:37:12.069Z,671.00
2023-01-13T17:38:12.026Z,669.00
2023-01-13T17:39:11.996Z,667.00
2023-01-13T17:40:12.001Z,671.00
2023-01-13T17:41:11.943Z,669.00
2023-01-13T17:42:11.902Z,666.00
2023-01-13T17:43:11.865Z,666.00
2023-01-13T17:44:11.833Z,666.00
2023-01-13T17:45:11.797Z,667.00
2023-01-13T17:46:11.805Z,668.00
2023-01-13T17:47:11.705Z,667.00
2023-01-13T17:48:11.672Z,668.00
2023-01-13T17:49:11.651Z,668.00
2023-01-13T17:50:11.601Z,668.00
2023-01-13T17:51:11.588Z,667.00
2023-01-13T17:52:11.567Z,671.00
2023-01-13T17:53:11.506Z,668.00
2023-01-13T17:54:11.463Z,668.00
2023-01-13T17:55:11.427Z,669.00
2023-01-13T17:56:11.392Z,668.00
2023-01-13T17:57:11.367Z,664.00
2023-01-13T17:58:11.372Z,664.00
2023-01-13T17:59:11.286Z,663.00
2023-01-13T18:00:11.249Z,661.00
2023-01-13T18:01:11.363Z,659.00
2023-01-13T18:02:11.343Z,657.00
2023-01-13T18:03:11.163Z,656.00
2023-01-13T18:04:11.129Z,656.00
2023-01-13T18:05:11.123Z,657.00
2023-01-13T18:06:11.076Z,658.00
2023-01-13T18:07:11.078Z,657.00
2023-01-13T18:08:11.020Z,659.00
2023-01-13T18:09:10.986Z,659.00
2023-01-13T18:10:10.926Z,657.00
2023-01-13T18:11:10.913Z,659.00
2023-01-13T18:12:10.873Z,660.00
2023-01-13T18:13:10.839Z,662.00
2023-01-13T18:14:10.801Z,657.00
2023-01-13T18:15:10.820Z,656.00
2023-01-13T18:16:10.772Z,656.00
2023-01-13T18:17:10.711Z,657.00
2023-01-13T18:18:10.704Z,657.00
2023-01-13T18:19:10.649Z,657.00
2023-01-13T18:20:10.632Z,657.00
2023-01-13T18:21:10.613Z,655.00
2023-01-13T18:22:10.565Z,653.00
2023-01-13T18:23:10.543Z,653.00
2023-01-13T18:24:10.500Z,653.00
2023-01-13T18:25:10.470Z,654.00
2023-01-13T18:26:10.436Z,653.00
2023-01-13T18:27:10.433Z,652.00
2023-01-13T18:28:10.381Z,651.00
2023-01-13T18:29:10.351Z,650.00
2023-01-13T18:30:10.307Z,652.00
2023-01-13T18:31:10.313Z,653.00
2023-01-13T18:32:10.257Z,652.00
2023-01-13T18:33:10.215Z,651.00
2023-01-13T18:34:10.174Z,649.00
2023-01-13T18:35:10.160Z,647.00
2023-01-13T18:36:10.094Z,648.00
2023-01-13T18:37:10.093Z,649.00
2023-01-13T18:38:10.038Z,651.00
2023-01-13T18:39:10.023Z,648.00
2023-01-13T18:40:09.999Z,647.00
2023-01-13T18:41:09.950Z,647.00
2023-01-13T18:42:09.930Z,646.00
2023-01-13T18:43:09.880Z,647.00
2023-01-13T18:44:09.845Z,645.00
2023-01-13T18:45:10.630Z,648.00
2023-01-13T18:46:09.826Z,643.00
2023-01-13T18:47:09.783Z,641.00
2023-01-13T18:48:09.734Z,641.00
2023-01-13T18:49:09.726Z,643.00
2023-01-13T18:50:09.701Z,644.00
2023-01-13T18:51:09.648Z,646.00
2023-01-13T18:52:09.613Z,647.00
2023-01-13T18:53:09.613Z,646.00
2023-01-13T18:55:09.536Z,644.00
2023-01-13T18:56:09.513Z,645.00
2023-01-13T18:57:09.489Z,646.00
2023-01-13T18:58:09.458Z,642.00
2023-01-13T18:59:09.418Z,642.00
2023-01-13T19:00:09.416Z,639.00
2023-01-13T19:01:09.431Z,639.00
2023-01-13T19:02:09.391Z,637.00
2023-01-13T19:03:09.315Z,634.00
2023-01-13T19:04:09.256Z,632.00
2023-01-13T19:05:09.256Z,632.00
2023-01-13T19:06:09.190Z,636.00
2023-01-13T19:07:09.207Z,636.00
2023-01-13T19:08:09.160Z,636.00
2023-01-13T19:09:09.117Z,636.00
2023-01-13T19:15:08.949Z,640.00
2023-01-13T19:16:08.952Z,639.00
